Accueil
METAR-TAF:

METAR-TAF

Aéroports :

Gibraltar, Gibraltar

Aéroport international de Gibraltar

latitude: 36-09N, longitude: 005-21W, altitude: 5 m

Observation

Le bulletin a été fait il y a 51 minutes, à 02:50 UTC
Vent 7 kt de ouest/sud-ouest
Température 19°C
Humidité 78%
Pression 1013 hPa
Visibilité 10 km ou plus

METAR: LXGB 260250Z AUTO 25007KT 9999 // NCD 19/15 Q1013

Heure: 05:41 (03:41 UTC)

Prévision

Le bulletin a été fait il y a 11 heures et 16 minutes, à 16:25 UTC
Prévision valable du 25 à 18 UTC au 25 à 22 UTC
Vent 7 kt de sud-est
Visibilité 10 km ou plus
Quelques nuages à une hauteur de 2500 ft

TAF: LXGB 251625Z 2518/2522 13007KT 9999 FEW025

Observations et prévisions météorologiques de plus de 4000 aéroports (messages METAR et TAF).

Les stations disponibles sont représentées par des disques jaunes et rouges sur la carte.

Passer la souris dessus pour voir le nom de la station.

Cliquer dessus pour voir les observations et prévisions météorologiques.

Pour changer de carte: cliquez sur les boutons verts avec une croix noire pour zoomer, sur le bouton vert avec un tiret pour effectuer un zoom arrière, ou sur les flèches vertes pour les cartes adjacentes.


METAR-TAF: